Time;durP1;ratioP1;P1;durP2;ratioP2;P2;SDS_P1;SDS_P2;PMS_P1;PMS_P2;Temp;Humidity;BMP_temperature;BMP_pressure;BME280_temperature;BME280_humidity;BME280_pressure;Samples;Min_cycle;Max_cycle;Signal;HPM_P1;HPM_P2
2022/03/16 00:00:18;;;;;;;17.73;12.03;;;;;;;5.13;88.11;100639.34;5071399;28;20200;-66
2022/03/16 00:02:45;;;;;;;18.03;11.37;;;;;;;5.15;87.84;100622.41;5071508;28;20199;-66
2022/03/16 00:05:12;;;;;;;17.67;11.13;;;;;;;5.12;87.75;100627.47;5071337;28;20287;-65
2022/03/16 00:07:39;;;;;;;21.93;12.37;;;;;;;5.04;88.03;100616.34;5071478;28;20291;-66
2022/03/16 00:10:09;;;;;;;13.03;9.97;;;;;;;5.03;88.17;100614.66;5071365;28;20674;-66
2022/03/16 00:12:36;;;;;;;10.53;9.57;;;;;;;5.04;88.80;100621.44;5071260;28;20291;-66
2022/03/16 00:15:04;;;;;;;14.43;10.10;;;;;;;5.00;89.02;100622.25;5071287;28;20223;-66
2022/03/16 00:17:31;;;;;;;11.93;10.13;;;;;;;5.01;88.60;100623.94;5070962;28;20192;-66
2022/03/16 00:19:58;;;;;;;11.87;9.60;;;;;;;5.02;88.35;100614.63;5071344;28;20287;-66
2022/03/16 00:22:25;;;;;;;8.70;7.90;;;;;;;5.04;88.23;100620.59;5071067;28;20648;-66
2022/03/16 00:24:52;;;;;;;8.47;7.67;;;;;;;5.03;88.29;100614.66;5071665;28;20192;-66
2022/03/16 00:27:20;;;;;;;11.83;8.30;;;;;;;5.00;88.51;100612.09;5066672;28;20224;-66
2022/03/16 00:29:47;;;;;;;8.83;7.73;;;;;;;4.98;88.53;100600.16;5051186;28;20197;-66
2022/03/16 00:32:14;;;;;;;10.10;8.33;;;;;;;4.98;88.41;100611.19;5050319;28;20201;-66
2022/03/16 00:34:40;;;;;;;11.17;8.10;;;;;;;4.86;88.99;100602.56;5050797;28;20209;-66
2022/03/16 00:37:07;;;;;;;9.90;9.10;;;;;;;4.82;89.69;100598.28;5050901;28;20271;-66
2022/03/16 00:39:34;;;;;;;10.27;8.97;;;;;;;4.72;90.36;100589.69;5050827;28;20737;-66
2022/03/16 00:42:03;;;;;;;9.13;8.23;;;;;;;4.56;90.90;100575.97;5051116;28;20197;-66
2022/03/16 00:44:34;;;;;;;10.60;9.60;;;;;;;4.63;90.89;100585.38;5058350;28;20228;-66
2022/03/16 00:47:02;;;;;;;14.53;8.40;;;;;;;4.65;90.96;100587.94;5051959;28;20287;-66
2022/03/16 00:49:29;;;;;;;15.47;9.07;;;;;;;4.61;90.41;100576.03;5061609;28;20291;-66
2022/03/16 00:51:56;;;;;;;12.90;8.70;;;;;;;4.08;90.49;100471.25;5050958;28;20283;-66
2022/03/16 00:54:22;;;;;;;13.57;10.37;;;;;;;4.68;90.38;100580.38;5050648;28;20225;-66
2022/03/16 00:56:49;;;;;;;10.23;9.20;;;;;;;4.69;90.03;100577.81;5042863;28;20720;-66
2022/03/16 00:59:16;;;;;;;11.43;9.40;;;;;;;4.70;89.94;100581.22;5030828;28;20205;-66
2022/03/16 01:01:45;;;;;;;11.30;8.50;;;;;;;4.72;89.74;100566.84;5030939;28;20296;-66
2022/03/16 01:04:11;;;;;;;9.57;8.63;;;;;;;4.75;89.59;100577.03;5030814;28;20197;-66
2022/03/16 01:06:38;;;;;;;9.53;8.53;;;;;;;4.75;89.76;100575.34;5031054;28;20323;-66
2022/03/16 01:09:05;;;;;;;9.87;8.87;;;;;;;4.76;89.74;100583.84;5050633;28;20201;-66
2022/03/16 01:11:32;;;;;;;10.80;9.83;;;;;;;4.79;89.52;100578.78;5037424;28;20255;-66
2022/03/16 01:14:00;;;;;;;9.87;8.90;;;;;;;4.78;89.45;100572.03;5030779;28;20595;-66
2022/03/16 01:16:27;;;;;;;10.10;8.87;;;;;;;4.80;89.45;100572.03;5030461;28;20201;-66
2022/03/16 01:18:55;;;;;;;9.70;8.70;;;;;;;4.78;89.25;100561.88;5030804;28;20689;-66
2022/03/16 01:21:22;;;;;;;10.17;8.63;;;;;;;4.79;89.39;100566.09;5030633;28;20201;-66
2022/03/16 01:23:49;;;;;;;9.23;8.30;;;;;;;4.68;89.32;100542.25;5030544;28;20229;-66
2022/03/16 01:26:16;;;;;;;12.53;9.37;;;;;;;4.79;89.43;100555.94;5030699;28;20201;-66
2022/03/16 01:28:43;;;;;;;10.33;8.93;;;;;;;4.79;89.46;100550.84;5030511;28;20209;-66
2022/03/16 01:31:09;;;;;;;9.80;8.80;;;;;;;4.77;89.63;100547.44;5030616;28;20304;-66
2022/03/16 01:33:36;;;;;;;10.10;9.10;;;;;;;4.72;90.10;100549.06;5030322;28;20202;-66
2022/03/16 01:36:06;;;;;;;12.00;9.77;;;;;;;4.65;90.80;100537.97;5030407;28;20336;-66
2022/03/16 01:38:32;;;;;;;17.30;10.80;;;;;;;4.59;91.16;100531.97;5030451;28;20241;-66
2022/03/16 01:40:59;;;;;;;18.47;12.27;;;;;;;4.61;91.16;100530.31;5036200;28;20202;-66
2022/03/16 01:43:26;;;;;;;15.10;11.97;;;;;;;4.62;90.84;100521.88;5036468;28;20236;-66
2022/03/16 01:45:53;;;;;;;17.77;13.23;;;;;;;4.46;90.45;100490.34;5039913;28;20229;-66
2022/03/16 01:48:21;;;;;;;25.47;15.80;;;;;;;4.56;90.71;100501.47;5049016;28;20395;-66
2022/03/16 01:50:49;;;;;;;37.67;19.90;;;;;;;4.55;90.86;100500.63;5053793;28;20197;-66
2022/03/16 01:53:18;;;;;;;29.97;16.77;;;;;;;4.53;90.58;100486.19;5053953;28;20307;-67
2022/03/16 01:55:45;;;;;;;23.53;15.00;;;;;;;4.48;91.14;100467.53;5036687;28;20308;-66
2022/03/16 01:58:12;;;;;;;25.43;15.10;;;;;;;4.50;90.99;100460.78;5033806;28;20232;-66
2022/03/16 02:00:39;;;;;;;29.60;16.10;;;;;;;4.47;90.91;100455.66;5034063;28;20292;-66
2022/03/16 02:03:08;;;;;;;23.23;14.93;;;;;;;4.56;90.72;100468.44;5033831;28;20281;-66
2022/03/16 02:05:35;;;;;;;22.87;14.33;;;;;;;4.56;90.74;100455.75;5033854;28;20201;-66
2022/03/16 02:08:02;;;;;;;18.70;13.40;;;;;;;4.50;90.45;100451.47;5033427;28;20247;-66
2022/03/16 02:10:31;;;;;;;18.30;13.97;;;;;;;4.58;90.00;100454.09;5034001;28;20680;-66
2022/03/16 02:12:58;;;;;;;25.40;14.77;;;;;;;4.49;89.69;100433.69;5033494;28;20603;-66
2022/03/16 02:15:25;;;;;;;20.43;13.93;;;;;;;4.58;89.35;100452.41;5033670;28;20210;-66
2022/03/16 02:17:55;;;;;;;24.27;14.83;;;;;;;4.60;89.34;100447.34;5033494;28;20296;-66
2022/03/16 02:20:22;;;;;;;20.10;13.90;;;;;;;4.60;89.21;100462.59;5033476;28;20214;-66
2022/03/16 02:22:55;;;;;;;19.00;15.07;;;;;;;4.57;89.33;100449.84;5033655;28;20662;-66
2022/03/16 02:25:22;;;;;;;17.77;14.57;;;;;;;4.53;89.22;100455.72;5033390;28;20212;-66
2022/03/16 02:27:49;;;;;;;20.30;14.97;;;;;;;4.51;89.76;100449.78;5033566;28;20204;-66
2022/03/16 02:30:16;;;;;;;21.83;15.33;;;;;;;4.50;89.70;100450.63;5033276;28;20206;-66
2022/03/16 02:32:43;;;;;;;23.87;17.53;;;;;;;4.37;89.57;100433.53;5033464;28;20288;-66
2022/03/16 02:35:10;;;;;;;36.33;20.97;;;;;;;4.40;89.88;100458.97;5033126;28;20213;-66
2022/03/16 02:37:38;;;;;;;35.17;20.30;;;;;;;4.38;90.09;100456.41;5033283;28;20216;-66
2022/03/16 02:40:09;;;;;;;31.07;18.43;;;;;;;4.41;90.32;100435.28;5033090;28;20256;-66
2022/03/16 02:42:37;;;;;;;34.83;21.00;;;;;;;4.37;90.28;100433.53;5042679;28;20212;-66
2022/03/16 02:45:05;;;;;;;31.57;20.37;;;;;;;4.32;90.52;100430.97;5043936;28;20193;-66
2022/03/16 02:47:33;;;;;;;28.37;18.27;;;;;;;4.35;90.97;100430.16;5052902;28;20204;-66
2022/03/16 02:50:00;;;;;;;27.13;17.17;;;;;;;4.33;90.92;100431.81;5052882;28;20292;-65
2022/03/16 02:52:27;;;;;;;23.93;15.50;;;;;;;4.31;90.90;100448.72;5053107;28;20573;-66
2022/03/16 02:54:54;;;;;;;23.50;15.63;;;;;;;4.32;91.18;100455.50;5052248;28;20223;-66
2022/03/16 02:57:22;;;;;;;20.50;14.83;;;;;;;4.35;90.64;100441.16;5052673;28;20319;-66
2022/03/16 02:59:49;;;;;;;20.93;13.37;;;;;;;4.36;90.63;100406.47;5052968;28;20200;-66
2022/03/16 03:02:16;;;;;;;18.23;13.10;;;;;;;4.30;90.56;100416.56;5041389;28;20206;-66
2022/03/16 03:04:43;;;;;;;16.87;13.10;;;;;;;4.34;90.50;100419.13;5032982;28;20635;-66
2022/03/16 03:07:10;;;;;;;19.80;13.47;;;;;;;4.35;90.87;100425.06;5032632;28;20280;-66
2022/03/16 03:09:37;;;;;;;18.33;12.97;;;;;;;4.36;90.50;100416.63;5032788;28;20205;-66
2022/03/16 03:12:05;;;;;;;18.73;14.17;;;;;;;4.37;90.49;100428.47;5034829;28;20201;-66
2022/03/16 03:14:33;;;;;;;19.47;13.70;;;;;;;4.38;90.49;100425.09;5032363;28;20749;-66
2022/03/16 03:17:00;;;;;;;16.67;13.20;;;;;;;4.39;90.04;100431.88;5032627;28;20284;-66
2022/03/16 03:19:27;;;;;;;17.67;13.43;;;;;;;4.44;89.85;100422.63;5032565;28;20206;-65
2022/03/16 03:21:54;;;;;;;13.77;11.73;;;;;;;4.40;90.21;100420.88;5032825;28;20642;-66
2022/03/16 03:24:22;;;;;;;16.27;12.80;;;;;;;4.37;90.28;100418.31;5032450;28;20301;-66
2022/03/16 03:26:49;;;;;;;16.03;12.47;;;;;;;4.38;90.34;100410.72;5032313;28;20280;-66
2022/03/16 03:29:16;;;;;;;18.13;14.30;;;;;;;4.38;90.17;100420.88;5032073;28;20209;-66
2022/03/16 03:31:44;;;;;;;18.00;13.03;;;;;;;4.38;90.13;100414.94;5036256;28;20323;-66
2022/03/16 03:34:11;;;;;;;19.83;13.50;;;;;;;4.37;90.67;100403.06;5052115;28;20197;-66
2022/03/16 03:36:38;;;;;;;46.07;20.37;;;;;;;4.14;92.90;100387.59;5051036;28;20311;-65
2022/03/16 03:39:05;;;;;;;40.17;22.27;;;;;;;3.90;94.37;100387.31;5043137;28;20231;-66
2022/03/16 03:41:32;;;;;;;43.23;24.30;;;;;;;3.95;94.93;100384.00;5041603;28;20202;-65
2022/03/16 03:43:59;;;;;;;46.17;21.53;;;;;;;3.94;94.91;100379.75;5050637;28;20643;-66
2022/03/16 03:46:26;;;;;;;42.33;22.90;;;;;;;4.04;95.17;100399.31;5051939;28;20625;-66
2022/03/16 03:48:55;;;;;;;37.30;21.40;;;;;;;4.05;94.91;100408.66;5051915;28;20757;-66
2022/03/16 03:51:22;;;;;;;43.70;24.93;;;;;;;4.07;94.75;100404.44;5051728;28;20306;-66
2022/03/16 03:53:49;;;;;;;36.60;22.20;;;;;;;4.09;94.62;100397.72;5051650;28;20205;-66
2022/03/16 03:56:16;;;;;;;34.93;21.93;;;;;;;4.11;94.67;100392.63;5054586;28;20239;-66
2022/03/16 03:58:43;;;;;;;45.53;24.47;;;;;;;4.13;94.08;100394.38;5071681;28;20644;-66
2022/03/16 04:01:10;;;;;;;39.77;23.13;;;;;;;4.15;93.88;100392.69;5071690;28;20200;-66
2022/03/16 04:03:36;;;;;;;34.50;21.33;;;;;;;4.17;93.63;100380.88;5071240;28;20302;-66
2022/03/16 04:06:05;;;;;;;30.93;20.07;;;;;;;4.19;93.63;100381.75;5071544;28;20271;-66
2022/03/16 04:08:32;;;;;;;35.97;21.00;;;;;;;4.24;93.08;100386.88;5070733;28;20204;-66
2022/03/16 04:10:58;;;;;;;34.47;22.23;;;;;;;4.20;93.01;100380.09;5071526;28;20290;-66
2022/03/16 04:13:25;;;;;;;39.00;20.10;;;;;;;4.21;93.19;100377.53;5071443;28;20208;-66
2022/03/16 04:15:52;;;;;;;32.67;20.40;;;;;;;4.12;93.10;100357.16;5071172;28;20306;-66
2022/03/16 04:18:19;;;;;;;27.97;19.07;;;;;;;4.22;93.01;100369.09;5071479;28;20200;-66
2022/03/16 04:20:46;;;;;;;31.77;20.03;;;;;;;4.14;92.74;100357.16;5071350;28;20278;-66
2022/03/16 04:23:14;;;;;;;31.17;19.43;;;;;;;4.05;93.39;100373.13;5071303;28;20660;-67
2022/03/16 04:25:41;;;;;;;31.33;20.13;;;;;;;3.89;95.28;100373.78;5071062;28;20199;-66
2022/03/16 04:28:09;;;;;;;39.40;19.53;;;;;;;3.97;94.96;100377.28;5071086;28;20287;-66
2022/03/16 04:30:36;;;;;;;31.37;20.60;;;;;;;3.87;95.73;100360.25;5071114;28;20213;-66
2022/03/16 04:33:02;;;;;;;34.47;20.50;;;;;;;3.94;95.78;100387.34;5070985;28;20286;-66
2022/03/16 04:35:30;;;;;;;41.17;19.87;;;;;;;3.95;96.36;100394.16;5064840;28;20232;-66
2022/03/16 04:37:57;;;;;;;26.03;18.17;;;;;;;3.93;96.43;100390.75;5064526;28;20653;-66
2022/03/16 04:40:25;;;;;;;27.07;19.23;;;;;;;3.97;96.59;100379.81;5062452;28;20652;-66
2022/03/16 04:42:52;;;;;;;29.37;19.23;;;;;;;4.01;96.66;100373.91;5070915;28;20196;-66
2022/03/16 04:45:19;;;;;;;22.07;16.93;;;;;;;3.97;96.70;100371.34;5071237;28;20196;-66
2022/03/16 04:47:46;;;;;;;30.50;19.77;;;;;;;3.98;96.86;100373.88;5063200;28;20660;-66
2022/03/16 04:50:13;;;;;;;28.97;19.87;;;;;;;4.00;96.28;100361.22;5050888;28;20287;-66
2022/03/16 04:52:44;;;;;;;32.73;21.70;;;;;;;3.82;96.49;100339.03;5050880;28;20303;-67
2022/03/16 04:55:12;;;;;;;36.10;21.40;;;;;;;3.92;96.68;100361.13;5051205;28;20685;-66
2022/03/16 04:57:41;;;;;;;51.00;24.67;;;;;;;4.01;96.85;100368.00;5068389;28;20220;-66
2022/03/16 05:00:09;;;;;;;60.57;26.50;;;;;;;4.00;96.62;100359.56;5070642;28;20211;-66
2022/03/16 05:02:36;;;;;;;55.27;25.23;;;;;;;3.98;97.00;100351.06;5070874;28;20298;-66
2022/03/16 05:05:04;;;;;;;39.87;24.53;;;;;;;3.97;96.87;100341.75;5070502;28;20618;-66
2022/03/16 05:07:31;;;;;;;41.40;22.93;;;;;;;4.04;96.57;100363.81;5070801;28;20287;-66
2022/03/16 05:09:58;;;;;;;45.17;25.23;;;;;;;4.04;96.54;100357.91;5070776;28;20204;-66
2022/03/16 05:12:25;;;;;;;52.60;27.60;;;;;;;4.07;96.85;100358.75;5070994;28;20644;-67
2022/03/16 05:14:53;;;;;;;36.03;23.33;;;;;;;4.07;96.58;100353.69;5070587;28;20204;-66
2022/03/16 05:17:20;;;;;;;39.30;22.13;;;;;;;4.04;96.71;100361.28;5070537;28;20583;-66
2022/03/16 05:19:48;;;;;;;31.87;19.93;;;;;;;4.05;97.25;100360.44;5073737;28;20200;-66
2022/03/16 05:22:15;;;;;;;30.70;20.57;;;;;;;4.07;97.03;100361.31;5074493;28;20253;-66
2022/03/16 05:24:42;;;;;;;30.73;18.97;;;;;;;4.09;97.39;100353.72;5074833;28;20200;-67
2022/03/16 05:27:09;;;;;;;27.80;17.53;;;;;;;4.08;97.11;100350.31;5074383;28;20220;-66
2022/03/16 05:29:36;;;;;;;24.30;18.83;;;;;;;4.10;97.21;100348.66;5074564;28;20292;-67
2022/03/16 05:32:05;;;;;;;25.93;18.97;;;;;;;4.12;97.25;100344.47;5074284;28;20286;-66
2022/03/16 05:34:32;;;;;;;25.73;15.40;;;;;;;4.05;97.50;100330.00;5063129;28;20292;-67
2022/03/16 05:36:58;;;;;;;27.90;16.63;;;;;;;4.09;96.86;100331.75;5067536;28;20290;-66
2022/03/16 05:39:25;;;;;;;27.13;17.53;;;;;;;4.05;96.99;100324.94;5054243;28;20212;-66
2022/03/16 05:41:52;;;;;;;26.83;18.87;;;;;;;4.03;97.53;100325.75;5054283;28;20580;-66
2022/03/16 05:44:19;;;;;;;39.23;20.43;;;;;;;4.06;97.96;100321.56;5054103;28;20204;-66
2022/03/16 05:46:46;;;;;;;44.03;21.33;;;;;;;4.06;97.99;100316.50;5054297;28;20231;-66
2022/03/16 05:49:14;;;;;;;34.80;20.90;;;;;;;4.05;98.74;100322.38;5054128;28;20280;-66
2022/03/16 05:51:41;;;;;;;53.87;28.13;;;;;;;4.04;98.83;100317.31;5054211;28;20235;-66
2022/03/16 05:54:08;;;;;;;31.67;18.53;;;;;;;4.03;99.32;100324.06;5054113;28;20716;-66
2022/03/16 05:56:35;;;;;;;32.87;15.80;;;;;;;4.01;99.47;100318.09;5053797;28;20232;-66
2022/03/16 05:59:02;;;;;;;22.63;14.97;;;;;;;3.98;99.86;100318.06;5053532;28;20193;-66
2022/03/16 06:01:29;;;;;;;22.10;16.10;;;;;;;3.90;100.00;100319.69;5053694;28;20295;-66
2022/03/16 06:03:56;;;;;;;21.17;15.40;;;;;;;3.84;100.00;100316.25;5054060;28;20288;-66
2022/03/16 06:06:26;;;;;;;20.57;14.63;;;;;;;3.85;100.00;100315.38;5053854;28;20276;-66
2022/03/16 06:08:53;;;;;;;21.47;14.17;;;;;;;3.94;100.00;100318.03;5053895;28;20200;-66
2022/03/16 06:11:20;;;;;;;18.90;14.50;;;;;;;4.01;100.00;100318.09;5054341;28;21047;-66
2022/03/16 06:13:47;;;;;;;18.10;14.80;;;;;;;4.04;100.00;100310.53;5059119;28;20280;-66
2022/03/16 06:16:14;;;;;;;22.37;16.10;;;;;;;4.14;100.00;100314.00;5053589;28;20308;-66
2022/03/16 06:18:41;;;;;;;21.47;15.63;;;;;;;4.13;100.00;100317.41;5053484;28;20204;-66
2022/03/16 06:21:07;;;;;;;25.73;16.67;;;;;;;4.10;100.00;100313.13;5053475;28;20287;-66
2022/03/16 06:23:37;;;;;;;31.20;18.90;;;;;;;3.84;100.00;100304.41;5053483;28;20692;-66
2022/03/16 06:26:05;;;;;;;27.17;16.90;;;;;;;3.61;100.00;100295.69;5053705;28;20204;-66
2022/03/16 06:28:32;;;;;;;22.27;16.27;;;;;;;3.55;100.00;100271.13;5054608;28;20228;-66
2022/03/16 06:30:59;;;;;;;21.20;15.60;;;;;;;3.67;100.00;100286.47;5061998;28;20285;-66
2022/03/16 06:33:26;;;;;;;26.90;16.40;;;;;;;3.72;100.00;100290.75;5060581;28;20295;-66
2022/03/16 06:35:52;;;;;;;23.87;18.03;;;;;;;3.79;100.00;100295.03;5064320;28;20235;-67
2022/03/16 06:38:19;;;;;;;29.57;18.20;;;;;;;3.86;100.00;100297.66;5073199;28;20204;-66
2022/03/16 06:40:48;;;;;;;23.60;16.77;;;;;;;3.80;100.00;100302.66;5073054;28;20199;-67
2022/03/16 06:43:14;;;;;;;23.10;17.00;;;;;;;3.88;100.00;100306.13;5073062;28;20287;-66
2022/03/16 06:45:41;;;;;;;28.20;17.70;;;;;;;3.94;100.00;100302.81;5072968;28;20259;-67
2022/03/16 06:48:08;;;;;;;34.67;21.47;;;;;;;3.84;100.00;100279.03;5073445;28;20656;-67
2022/03/16 06:50:36;;;;;;;27.60;18.27;;;;;;;4.00;100.00;100298.66;5072926;28;20192;-66
2022/03/16 06:53:02;;;;;;;26.53;17.97;;;;;;;3.98;100.00;100292.72;5073110;28;20680;-66
2022/03/16 06:55:29;;;;;;;30.03;16.53;;;;;;;3.89;100.00;100292.63;5069435;28;20556;-67
2022/03/16 06:57:58;;;;;;;22.90;16.23;;;;;;;3.94;100.00;100285.88;5072805;28;20319;-66
2022/03/16 07:00:25;;;;;;;24.13;16.70;;;;;;;3.91;100.00;100278.25;5072766;28;20206;-66
2022/03/16 07:02:54;;;;;;;30.17;18.50;;;;;;;4.04;100.00;100292.75;5072582;28;20309;-67
2022/03/16 07:05:22;;;;;;;35.57;18.77;;;;;;;4.15;100.00;100300.50;5072776;28;20250;-67
2022/03/16 07:07:49;;;;;;;35.50;21.57;;;;;;;4.13;100.00;100297.09;5072462;28;20275;-67
2022/03/16 07:10:16;;;;;;;35.90;21.00;;;;;;;4.11;100.00;100274.25;5070499;28;20291;-67
2022/03/16 07:12:42;;;;;;;47.30;21.40;;;;;;;4.22;100.00;100284.50;5072280;28;20279;-66
2022/03/16 07:15:11;;;;;;;35.60;21.93;;;;;;;4.21;100.00;100286.19;5072741;28;20228;-67
2022/03/16 07:17:38;;;;;;;36.70;21.33;;;;;;;4.11;100.00;100271.69;5072409;28;20221;-67
2022/03/16 07:20:07;;;;;;;43.00;22.40;;;;;;;4.11;100.00;100278.47;5072367;28;20294;-67
2022/03/16 07:22:35;;;;;;;36.50;23.03;;;;;;;3.99;100.00;100253.81;5072333;28;20204;-67
2022/03/16 07:25:03;;;;;;;36.83;19.20;;;;;;;4.08;100.00;100264.06;5072218;28;20199;-67
2022/03/16 07:27:29;;;;;;;33.23;18.33;;;;;;;4.09;100.00;100268.31;5072370;28;20660;-67
2022/03/16 07:29:57;;;;;;;28.47;18.43;;;;;;;4.06;100.00;100275.91;5067074;28;20461;-66
2022/03/16 07:32:25;;;;;;;23.33;15.93;;;;;;;3.95;100.00;100266.47;5065213;28;20299;-66
2022/03/16 07:34:52;;;;;;;22.40;15.77;;;;;;;4.05;100.00;100271.66;5051800;28;20200;-66
2022/03/16 07:37:19;;;;;;;25.13;15.37;;;;;;;4.13;100.00;100261.59;5052165;28;20320;-66
2022/03/16 07:39:46;;;;;;;24.10;16.70;;;;;;;4.06;100.00;100260.66;5052111;28;20219;-65
2022/03/16 07:42:13;;;;;;;25.67;16.60;;;;;;;4.07;100.00;100252.19;5051862;28;20291;-66
2022/03/16 07:44:40;;;;;;;20.27;15.20;;;;;;;4.17;100.00;100256.53;5052041;28;20287;-66
2022/03/16 07:47:07;;;;;;;28.13;17.90;;;;;;;4.27;100.00;100264.22;5051814;28;20275;-66
2022/03/16 07:49:36;;;;;;;20.30;15.53;;;;;;;4.26;100.00;100268.47;5060074;28;20204;-66
2022/03/16 07:52:03;;;;;;;23.73;16.50;;;;;;;4.27;100.00;100269.28;5051710;28;20196;-66
2022/03/16 07:54:29;;;;;;;23.30;15.77;;;;;;;4.31;100.00;100265.97;5053083;28;20679;-66
2022/03/16 07:56:56;;;;;;;26.73;17.00;;;;;;;4.38;100.00;100263.50;5054430;28;20231;-65
2022/03/16 07:59:23;;;;;;;23.37;16.97;;;;;;;4.52;100.00;100266.16;5071833;28;20675;-66
2022/03/16 08:01:50;;;;;;;20.33;15.67;;;;;;;4.55;100.00;100271.25;5071445;28;20287;-66
2022/03/16 08:04:17;;;;;;;23.07;16.37;;;;;;;4.53;100.00;100257.69;5071357;28;20215;-66
2022/03/16 08:06:45;;;;;;;25.40;15.33;;;;;;;4.51;100.00;100257.69;5071520;28;20287;-66
2022/03/16 08:09:12;;;;;;;20.50;15.83;;;;;;;4.59;100.00;100260.25;5071194;28;20234;-66
2022/03/16 08:11:40;;;;;;;21.07;15.97;;;;;;;4.71;100.00;100268.00;5071670;28;20587;-66
2022/03/16 08:14:07;;;;;;;27.77;15.70;;;;;;;4.65;100.00;100271.31;5071187;28;20267;-66
2022/03/16 08:16:34;;;;;;;23.63;16.87;;;;;;;4.69;100.00;100270.50;5071270;28;20212;-65
2022/03/16 08:19:01;;;;;;;27.73;17.07;;;;;;;4.78;100.00;100268.88;5071418;28;20715;-65
2022/03/16 08:21:28;;;;;;;21.07;15.70;;;;;;;4.85;100.00;100266.38;5071288;28;20200;-66
2022/03/16 08:23:56;;;;;;;17.60;15.03;;;;;;;4.87;100.00;100259.63;5071391;28;20661;-66
2022/03/16 08:26:24;;;;;;;32.17;18.10;;;;;;;4.89;100.00;100257.94;5051996;28;20201;-66
2022/03/16 08:28:51;;;;;;;29.83;19.10;;;;;;;5.04;100.00;100263.09;5060457;28;20204;-65
2022/03/16 08:31:18;;;;;;;23.87;17.23;;;;;;;5.00;100.00;100256.34;5058721;28;20295;-66
2022/03/16 08:33:45;;;;;;;24.63;16.57;;;;;;;5.11;100.00;100249.59;5051232;28;20283;-65
2022/03/16 08:36:12;;;;;;;27.20;20.20;;;;;;;5.23;100.00;100254.75;5050794;28;20197;-66
2022/03/16 08:38:41;;;;;;;31.20;20.47;;;;;;;5.27;100.00;100256.47;5051024;28;20208;-66
2022/03/16 08:41:10;;;;;;;27.37;18.13;;;;;;;5.39;99.67;100253.16;5050924;28;20292;-66
2022/03/16 08:43:37;;;;;;;23.87;17.20;;;;;;;5.55;100.00;100251.50;5070988;28;20196;-65
2022/03/16 08:46:05;;;;;;;32.70;19.77;;;;;;;5.58;100.00;100256.59;5071062;28;20287;-65
2022/03/16 08:48:32;;;;;;;38.03;19.97;;;;;;;5.71;99.58;100253.25;5071167;28;20199;-66
2022/03/16 08:50:59;;;;;;;195.87;78.27;;;;;;;5.82;99.08;100252.44;5071316;28;20199;-66
2022/03/16 08:53:26;;;;;;;68.67;33.87;;;;;;;5.94;98.29;100256.75;5066000;28;20740;-66
2022/03/16 08:55:53;;;;;;;45.43;25.53;;;;;;;6.01;97.07;100248.25;5054179;28;20212;-66
2022/03/16 08:58:21;;;;;;;57.17;31.10;;;;;;;6.05;96.60;100252.50;5050406;28;20212;-66
2022/03/16 09:00:48;;;;;;;43.87;24.43;;;;;;;6.09;95.77;100249.13;5050904;28;20303;-66
2022/03/16 09:03:15;;;;;;;44.27;27.53;;;;;;;6.16;95.78;100244.91;5050899;28;20741;-66
2022/03/16 09:05:42;;;;;;;48.53;26.23;;;;;;;6.24;94.98;100240.66;5050601;28;20193;-66
2022/03/16 09:08:10;;;;;;;42.47;25.10;;;;;;;6.34;93.95;100258.47;5050718;28;20189;-66
2022/03/16 09:10:38;;;;;;;44.77;23.83;;;;;;;6.42;93.68;100252.53;5050705;28;20930;-66
2022/03/16 09:13:05;;;;;;;40.60;27.03;;;;;;;6.46;92.77;100241.53;5050607;28;20338;-66
2022/03/16 09:15:33;;;;;;;40.30;23.30;;;;;;;6.73;93.18;100256.78;5050469;28;20201;-66
2022/03/16 09:18:00;;;;;;;42.83;25.03;;;;;;;6.78;92.17;100255.09;5050742;28;20212;-66
2022/03/16 09:20:28;;;;;;;43.50;26.97;;;;;;;6.87;89.09;100252.50;5050288;28;20192;-66
2022/03/16 09:22:55;;;;;;;59.10;28.27;;;;;;;6.95;87.35;100248.25;5056315;28;20762;-66
2022/03/16 09:25:25;;;;;;;54.17;27.30;;;;;;;7.07;87.06;100243.13;5065112;28;20211;-65
2022/03/16 09:27:52;;;;;;;37.10;25.97;;;;;;;7.12;87.00;100221.00;5060313;28;20634;-66
2022/03/16 09:30:21;;;;;;;53.13;28.97;;;;;;;7.11;86.21;100236.31;5070123;28;20287;-66
2022/03/16 09:32:49;;;;;;;43.20;26.80;;;;;;;7.00;85.38;100225.31;5070145;28;20244;-66
2022/03/16 09:35:16;;;;;;;54.10;28.07;;;;;;;7.08;83.50;100224.41;5070021;28;20211;-66
2022/03/16 09:37:43;;;;;;;29.33;20.17;;;;;;;7.03;83.95;100215.94;5069955;28;20225;-66
2022/03/16 09:40:11;;;;;;;34.40;21.13;;;;;;;7.13;84.58;100232.91;5070923;28;20287;-66
2022/03/16 09:42:39;;;;;;;22.57;17.57;;;;;;;7.20;85.15;100223.53;5070429;28;20287;-66
2022/03/16 09:45:11;;;;;;;31.00;18.17;;;;;;;7.23;82.22;100216.75;5070791;28;20200;-66
2022/03/16 09:47:38;;;;;;;32.40;20.67;;;;;;;7.30;81.88;100215.84;5070132;28;20200;-66
2022/03/16 09:50:10;;;;;;;32.50;19.03;;;;;;;7.29;82.50;100219.25;5070563;28;20265;-66
2022/03/16 09:52:37;;;;;;;31.83;20.83;;;;;;;7.34;82.44;100206.47;5052943;28;20220;-65
2022/03/16 09:55:06;;;;;;;28.33;19.90;;;;;;;7.38;81.71;100220.91;5050023;28;20283;-65
2022/03/16 09:57:33;;;;;;;27.37;20.67;;;;;;;7.39;77.88;100218.38;5049722;28;20294;-66
2022/03/16 10:00:00;;;;;;;30.80;22.07;;;;;;;7.30;78.89;100200.53;5050104;28;20207;-66
2022/03/16 10:02:28;;;;;;;35.73;21.73;;;;;;;7.36;78.97;100197.97;5050199;28;20200;-66
2022/03/16 10:04:55;;;;;;;44.33;23.77;;;;;;;7.48;78.41;100208.97;5051589;28;20283;-66
2022/03/16 10:07:29;;;;;;;36.47;22.57;;;;;;;7.57;78.43;100203.81;5053786;28;20236;-66
2022/03/16 10:15:25;;;;;;;63.97;38.20;;;;;;;7.81;78.78;100193.47;5073578;28;20211;-66
2022/03/16 10:17:59;;;;;;;52.33;32.00;;;;;;;7.86;77.60;100196.84;5072936;28;20299;-66
2022/03/16 10:20:30;;;;;;;38.30;24.67;;;;;;;7.93;77.30;100188.28;5064499;28;20254;-66
2022/03/16 10:23:02;;;;;;;38.73;24.43;;;;;;;8.02;76.00;100188.22;5053307;28;20213;-66
2022/03/16 10:25:31;;;;;;;35.67;22.57;;;;;;;8.02;75.91;100185.66;5064530;28;20750;-66
2022/03/16 10:28:12;;;;;;;37.60;23.67;;;;;;;8.01;74.26;100176.31;5053423;28;20197;-66
2022/03/16 10:30:48;;;;;;;38.53;24.50;;;;;;;7.97;74.15;100169.53;5053601;28;20204;-66
2022/03/16 10:33:16;;;;;;;47.57;31.13;;;;;;;8.12;73.99;100187.28;5068034;28;20287;-66
2022/03/16 10:35:56;;;;;;;47.60;29.40;;;;;;;8.18;72.92;100179.56;5073198;28;20200;-66
2022/03/16 10:38:24;;;;;;;42.07;25.03;;;;;;;8.20;73.48;100166.81;5073156;28;20215;-66
2022/03/16 10:40:54;;;;;;;42.47;28.50;;;;;;;8.20;74.73;100161.69;5073076;28;20291;-66
2022/03/16 10:49:00;;;;;;;38.17;24.40;;;;;;;8.29;72.59;100159.94;5070386;28;20238;-66
2022/03/16 10:51:28;;;;;;;45.00;26.37;;;;;;;8.31;73.11;100145.44;5057475;28;20287;-66
2022/03/16 10:53:58;;;;;;;68.43;35.80;;;;;;;8.32;73.48;100138.63;5052827;28;20235;-66
2022/03/16 10:56:25;;;;;;;40.43;24.70;;;;;;;8.29;72.54;100142.06;5053029;28;20795;-66
2022/03/16 10:58:53;;;;;;;40.87;25.17;;;;;;;8.34;72.01;100145.41;5052500;28;20696;-66
2022/03/16 11:01:21;;;;;;;43.97;26.60;;;;;;;8.31;72.91;100142.88;5052544;28;20201;-66
2022/03/16 11:03:50;;;;;;;38.97;25.17;;;;;;;8.22;72.48;100150.59;5052853;28;20715;-66
2022/03/16 11:06:20;;;;;;;41.17;23.77;;;;;;;8.36;72.74;100143.69;5072687;28;20204;-66
2022/03/16 11:08:48;;;;;;;38.47;23.07;;;;;;;8.46;73.06;100138.50;5072807;28;20625;-66
2022/03/16 11:14:03;;;;;;;39.30;23.03;;;;;;;8.32;72.31;100103.72;5072625;28;20195;-66
2022/03/16 11:16:31;;;;;;;41.20;25.23;;;;;;;8.50;71.15;100137.63;5072055;28;20199;-66
2022/03/16 11:18:59;;;;;;;40.23;23.03;;;;;;;8.52;69.39;100138.44;5070585;28;20692;-66
2022/03/16 11:21:31;;;;;;;43.07;22.17;;;;;;;8.53;70.08;100142.69;5064650;28;20219;-66
2022/03/16 11:24:17;;;;;;;33.50;22.77;;;;;;;8.54;70.51;100149.47;5063541;28;20201;-66
2022/03/16 11:27:18;;;;;;;30.40;20.37;;;;;;;8.57;70.70;100152.00;5072367;28;20290;-66
2022/03/16 11:30:13;;;;;;;21.47;17.60;;;;;;;8.45;70.31;100119.75;5059494;28;20386;-66
2022/03/16 11:32:43;;;;;;;24.47;18.40;;;;;;;8.54;69.79;100122.22;5070344;28;20300;-66